createdAt,value
2017-01-14T00:00:55.890Z,0
2017-01-14T00:02:09.451Z,0
2017-01-14T00:03:22.905Z,0
2017-01-14T00:04:36.441Z,0
2017-01-14T00:05:50.061Z,0
2017-01-14T00:07:04.729Z,0
2017-01-14T00:08:18.822Z,0
2017-01-14T00:09:32.777Z,0
2017-01-14T00:10:46.474Z,0
2017-01-14T00:12:00.164Z,0
2017-01-14T00:13:14.369Z,0
2017-01-14T00:14:27.874Z,0
2017-01-14T00:15:41.513Z,0
2017-01-14T00:16:58.036Z,0
2017-01-14T00:18:11.547Z,0
2017-01-14T00:19:25.293Z,0
2017-01-14T00:20:38.757Z,0
2017-01-14T00:21:52.312Z,0
2017-01-14T00:23:05.752Z,0
2017-01-14T00:24:19.240Z,0
2017-01-14T00:25:33.457Z,0
2017-01-14T00:26:46.940Z,0
2017-01-14T00:28:00.499Z,0
2017-01-14T00:29:14.611Z,0
2017-01-14T00:30:28.206Z,0
2017-01-14T00:31:41.959Z,0
2017-01-14T00:32:55.988Z,0
2017-01-14T00:34:09.666Z,0
2017-01-14T00:35:23.213Z,0
2017-01-14T00:36:36.913Z,0
2017-01-14T00:37:50.825Z,0
2017-01-14T00:39:04.398Z,0
2017-01-14T00:40:18.391Z,0
2017-01-14T00:41:32.139Z,0
2017-01-14T00:42:46.344Z,0
2017-01-14T00:44:01.451Z,0
2017-01-14T00:45:15.360Z,0
2017-01-14T00:46:29.023Z,0
2017-01-14T00:47:43.058Z,0
2017-01-14T00:48:56.993Z,0
2017-01-14T00:50:10.770Z,0
2017-01-14T00:51:24.233Z,0
2017-01-14T00:52:37.694Z,0
2017-01-14T00:53:51.611Z,0
2017-01-14T00:55:05.604Z,0
2017-01-14T00:56:19.523Z,0
2017-01-14T00:57:32.992Z,0
2017-01-14T00:58:46.915Z,0
2017-01-14T01:00:01.431Z,0
2017-01-14T01:01:14.941Z,0
2017-01-14T01:02:28.741Z,0
2017-01-14T01:03:42.297Z,0
2017-01-14T01:04:56.094Z,0
2017-01-14T01:06:09.569Z,0
2017-01-14T01:07:24.124Z,0
2017-01-14T01:08:37.981Z,0
2017-01-14T01:09:52.813Z,0
2017-01-14T01:11:06.322Z,0
2017-01-14T01:12:19.989Z,0
2017-01-14T01:13:33.487Z,0
2017-01-14T01:14:47.311Z,0
2017-01-14T01:16:16.466Z,0
2017-01-14T01:17:29.902Z,0
2017-01-14T01:18:43.389Z,0
2017-01-14T01:19:56.996Z,0
2017-01-14T01:21:11.102Z,0
2017-01-14T01:22:25.084Z,0
2017-01-14T01:23:38.713Z,0
2017-01-14T01:24:52.276Z,0
2017-01-14T01:26:05.912Z,0
2017-01-14T01:27:20.212Z,0
2017-01-14T01:28:33.829Z,0
2017-01-14T01:29:47.459Z,0
2017-01-14T01:31:01.151Z,0
2017-01-14T01:32:16.052Z,0
2017-01-14T01:33:32.233Z,0
2017-01-14T01:34:46.438Z,0
2017-01-14T01:36:00.733Z,0
2017-01-14T01:37:15.222Z,0
2017-01-14T01:38:29.478Z,0
2017-01-14T01:39:43.789Z,0
2017-01-14T01:40:58.079Z,0
2017-01-14T01:42:11.811Z,0
2017-01-14T01:43:25.914Z,0
2017-01-14T01:44:39.460Z,0
2017-01-14T01:45:53.292Z,0
2017-01-14T01:47:07.598Z,0
2017-01-14T01:48:21.045Z,0
2017-01-14T01:49:34.555Z,0
2017-01-14T01:50:48.097Z,0
2017-01-14T01:52:02.007Z,0
2017-01-14T01:53:15.570Z,0
2017-01-14T01:54:29.143Z,0
2017-01-14T01:55:42.592Z,0
2017-01-14T01:56:56.172Z,0
2017-01-14T01:58:10.013Z,0
2017-01-14T01:59:23.648Z,0
2017-01-14T02:00:37.243Z,0
2017-01-14T02:01:51.587Z,0
2017-01-14T02:03:06.479Z,0
2017-01-14T02:04:20.242Z,0
2017-01-14T02:05:33.758Z,0
2017-01-14T02:06:47.485Z,0
2017-01-14T02:08:00.991Z,0
2017-01-14T02:09:14.573Z,0
2017-01-14T02:10:28.361Z,0
2017-01-14T02:11:41.837Z,0
2017-01-14T02:12:55.971Z,0
2017-01-14T02:14:10.728Z,0
2017-01-14T02:15:24.298Z,0
2017-01-14T02:16:38.254Z,0
2017-01-14T02:17:52.133Z,0
2017-01-14T02:19:05.725Z,0
2017-01-14T02:20:19.278Z,0
2017-01-14T02:21:33.134Z,0
2017-01-14T02:22:47.057Z,0
2017-01-14T02:24:00.784Z,0
2017-01-14T02:25:14.617Z,0
2017-01-14T02:26:28.197Z,0
2017-01-14T02:27:41.701Z,0
2017-01-14T02:28:55.829Z,0
2017-01-14T02:30:09.455Z,0
2017-01-14T02:31:23.008Z,0
2017-01-14T02:32:36.662Z,0
2017-01-14T02:33:50.354Z,0
2017-01-14T02:35:04.232Z,0
2017-01-14T02:36:17.714Z,0
2017-01-14T02:37:31.262Z,0
2017-01-14T02:38:45.103Z,0
2017-01-14T02:39:58.693Z,0
2017-01-14T02:41:12.600Z,0
2017-01-14T02:42:26.383Z,0
2017-01-14T02:43:39.776Z,0
2017-01-14T02:44:53.434Z,0
2017-01-14T02:46:07.930Z,0
2017-01-14T02:47:22.146Z,0
2017-01-14T02:48:35.627Z,0
2017-01-14T02:49:52.124Z,0
2017-01-14T02:51:06.494Z,0
2017-01-14T02:52:20.050Z,0
2017-01-14T02:53:34.150Z,0
2017-01-14T02:54:47.652Z,0
2017-01-14T02:56:01.219Z,0
2017-01-14T02:57:15.051Z,0
2017-01-14T02:58:29.157Z,0
2017-01-14T02:59:43.437Z,0
2017-01-14T03:00:56.949Z,0
2017-01-14T03:02:11.019Z,0
2017-01-14T03:03:24.721Z,0
2017-01-14T03:04:39.093Z,0
2017-01-14T03:05:52.858Z,0
2017-01-14T03:07:06.404Z,0
2017-01-14T03:08:19.996Z,0
2017-01-14T03:09:33.656Z,0
2017-01-14T03:10:47.082Z,0
2017-01-14T03:12:01.589Z,0
2017-01-14T03:13:15.152Z,0
2017-01-14T03:14:28.787Z,0
2017-01-14T03:15:42.981Z,0
2017-01-14T03:16:58.050Z,0
2017-01-14T03:18:12.738Z,0
2017-01-14T03:19:26.287Z,0
2017-01-14T03:20:39.898Z,0
2017-01-14T03:21:55.660Z,0
2017-01-14T03:23:09.983Z,0
2017-01-14T03:24:24.251Z,0
2017-01-14T03:25:37.727Z,0
2017-01-14T03:26:51.639Z,0
2017-01-14T03:28:05.722Z,0
2017-01-14T03:29:19.260Z,0
2017-01-14T03:30:33.035Z,0
2017-01-14T03:31:46.882Z,0
2017-01-14T03:33:00.683Z,0
2017-01-14T03:34:14.258Z,0
2017-01-14T03:35:28.139Z,0
2017-01-14T03:36:42.487Z,0
2017-01-14T03:37:55.983Z,0
2017-01-14T03:39:09.616Z,0
2017-01-14T03:40:30.211Z,0
2017-01-14T03:41:43.713Z,0
2017-01-14T03:42:57.606Z,0
2017-01-14T03:44:12.158Z,0
2017-01-14T03:45:26.131Z,0
2017-01-14T03:46:39.767Z,0
2017-01-14T03:47:53.595Z,0
2017-01-14T03:49:07.961Z,0
2017-01-14T03:50:21.492Z,0
2017-01-14T03:51:35.279Z,0
2017-01-14T03:52:49.379Z,0
2017-01-14T03:54:03.106Z,0
2017-01-14T03:55:17.305Z,0
2017-01-14T03:56:30.855Z,0
2017-01-14T03:57:44.483Z,0
2017-01-14T03:58:58.586Z,0
2017-01-14T04:00:12.147Z,0
2017-01-14T04:01:26.015Z,0
2017-01-14T04:02:39.976Z,0
2017-01-14T04:03:53.597Z,0
2017-01-14T04:05:07.255Z,0
2017-01-14T04:06:23.426Z,0
2017-01-14T04:07:37.308Z,0
2017-01-14T04:08:50.824Z,0
2017-01-14T04:10:04.445Z,0
2017-01-14T04:11:17.997Z,0
2017-01-14T04:12:31.560Z,0
2017-01-14T04:13:45.382Z,0
2017-01-14T04:14:59.034Z,0
2017-01-14T04:16:12.666Z,0
2017-01-14T04:17:26.140Z,0
2017-01-14T04:18:39.686Z,0
2017-01-14T04:19:53.520Z,0
2017-01-14T04:21:07.085Z,0
2017-01-14T04:22:20.665Z,0
2017-01-14T04:23:34.249Z,0
2017-01-14T04:24:47.737Z,0
2017-01-14T04:26:01.652Z,0
2017-01-14T04:27:15.577Z,0
2017-01-14T04:28:29.137Z,0
2017-01-14T04:29:42.707Z,0
2017-01-14T04:30:56.410Z,0
2017-01-14T04:32:10.309Z,0
2017-01-14T04:33:24.231Z,0
2017-01-14T04:34:38.182Z,0
2017-01-14T04:35:51.864Z,0
2017-01-14T04:37:05.547Z,0
2017-01-14T04:38:19.824Z,0
2017-01-14T04:39:33.541Z,0
2017-01-14T04:40:47.078Z,0
2017-01-14T04:42:00.747Z,0
2017-01-14T04:43:14.282Z,0
2017-01-14T04:44:28.073Z,0
2017-01-14T04:45:41.652Z,0
2017-01-14T04:46:55.361Z,0
2017-01-14T04:48:09.052Z,0
2017-01-14T04:49:22.725Z,0
2017-01-14T04:50:36.568Z,0
2017-01-14T04:51:50.072Z,0
2017-01-14T04:53:03.746Z,0
2017-01-14T04:54:17.311Z,0
2017-01-14T04:55:30.787Z,0
2017-01-14T04:56:44.588Z,0
2017-01-14T04:57:58.247Z,0
2017-01-14T04:59:11.884Z,0
2017-01-14T05:00:25.389Z,0
2017-01-14T05:01:38.983Z,0
2017-01-14T05:02:53.401Z,0
2017-01-14T05:04:06.979Z,0
2017-01-14T05:05:20.461Z,0
2017-01-14T05:06:34.424Z,0
2017-01-14T05:07:48.001Z,0
2017-01-14T05:09:01.871Z,0
2017-01-14T05:10:15.444Z,0
2017-01-14T05:11:28.997Z,0
2017-01-14T05:12:42.671Z,0
2017-01-14T05:13:56.206Z,0
2017-01-14T05:15:10.500Z,0
2017-01-14T05:16:24.109Z,0
2017-01-14T05:17:37.613Z,0
2017-01-14T05:18:51.336Z,0
2017-01-14T05:20:04.826Z,0
2017-01-14T05:21:19.265Z,0
2017-01-14T05:22:35.753Z,0
2017-01-14T05:23:49.368Z,0
2017-01-14T05:25:02.953Z,0
2017-01-14T05:26:16.593Z,0
2017-01-14T05:27:30.456Z,0
2017-01-14T05:28:44.172Z,0
2017-01-14T05:29:59.030Z,0
2017-01-14T05:31:12.557Z,0
2017-01-14T05:32:26.063Z,0
2017-01-14T05:33:39.964Z,0
2017-01-14T05:34:53.846Z,0
2017-01-14T05:36:07.438Z,0
2017-01-14T05:37:20.976Z,0
2017-01-14T05:38:34.544Z,0
2017-01-14T05:39:48.513Z,0
2017-01-14T05:41:02.109Z,0
2017-01-14T05:42:15.701Z,0
2017-01-14T05:43:29.635Z,0
2017-01-14T05:44:43.275Z,0
2017-01-14T05:45:57.147Z,0
2017-01-14T05:47:10.671Z,0
2017-01-14T05:48:24.243Z,0
2017-01-14T05:49:37.824Z,0
2017-01-14T05:50:51.622Z,0
2017-01-14T05:52:05.492Z,0
2017-01-14T05:53:19.528Z,0
2017-01-14T05:54:33.386Z,0
2017-01-14T05:55:48.822Z,0
2017-01-14T05:57:03.039Z,0
2017-01-14T05:58:19.108Z,0
2017-01-14T05:59:32.972Z,0
2017-01-14T06:00:48.054Z,0
2017-01-14T06:02:02.010Z,0
2017-01-14T06:03:15.690Z,0
2017-01-14T06:04:30.232Z,0
2017-01-14T06:05:43.854Z,0
2017-01-14T06:06:57.496Z,0
2017-01-14T06:08:11.617Z,0
2017-01-14T06:09:25.400Z,0
2017-01-14T06:10:39.321Z,0
2017-01-14T06:11:52.945Z,0
2017-01-14T06:13:06.449Z,0
2017-01-14T06:14:20.012Z,0
2017-01-14T06:15:33.637Z,0
2017-01-14T06:16:47.649Z,0
2017-01-14T06:18:01.299Z,0
2017-01-14T06:19:14.980Z,0
2017-01-14T06:20:29.255Z,0
2017-01-14T06:21:42.943Z,0
2017-01-14T06:22:56.800Z,0
2017-01-14T06:24:10.483Z,0
2017-01-14T06:25:24.053Z,0
2017-01-14T06:26:37.640Z,0
2017-01-14T06:27:51.328Z,0
2017-01-14T06:29:05.158Z,0
2017-01-14T06:30:19.371Z,0
2017-01-14T06:31:33.612Z,0
2017-01-14T06:32:47.717Z,0
2017-01-14T06:34:01.257Z,0
2017-01-14T06:35:15.209Z,0
2017-01-14T06:36:28.762Z,0
2017-01-14T06:37:42.716Z,0
2017-01-14T06:38:58.423Z,0
2017-01-14T06:40:12.760Z,0
2017-01-14T06:41:26.871Z,0
2017-01-14T06:42:41.011Z,0
2017-01-14T06:43:54.751Z,0
2017-01-14T06:45:08.347Z,0
2017-01-14T06:46:23.143Z,0
2017-01-14T06:47:37.452Z,0
2017-01-14T06:48:51.136Z,0
2017-01-14T06:50:04.838Z,0
2017-01-14T06:51:18.377Z,0
2017-01-14T06:52:32.314Z,0
2017-01-14T06:53:46.269Z,0
2017-01-14T06:54:59.812Z,0
2017-01-14T06:56:13.342Z,4
2017-01-14T06:57:26.889Z,0
2017-01-14T06:58:40.569Z,0
2017-01-14T06:59:54.439Z,4
2017-01-14T07:01:07.927Z,4
2017-01-14T07:02:21.559Z,4
2017-01-14T07:03:35.272Z,0
2017-01-14T07:04:48.854Z,0
2017-01-14T07:06:03.092Z,0
2017-01-14T07:07:16.643Z,4
2017-01-14T07:08:30.233Z,0
2017-01-14T07:09:44.148Z,4
2017-01-14T07:10:57.715Z,4
2017-01-14T07:12:11.597Z,4
2017-01-14T07:13:25.568Z,8
2017-01-14T07:14:39.311Z,8
2017-01-14T07:15:52.874Z,8
2017-01-14T07:17:06.401Z,8
2017-01-14T07:18:20.222Z,8
2017-01-14T07:19:33.847Z,8
2017-01-14T07:20:48.627Z,12
2017-01-14T07:22:02.141Z,12
2017-01-14T07:23:16.143Z,16
2017-01-14T07:24:29.965Z,20
2017-01-14T07:25:44.809Z,24
2017-01-14T07:26:58.633Z,24
2017-01-14T07:28:12.079Z,36
2017-01-14T07:29:25.793Z,48
2017-01-14T07:30:39.678Z,52
2017-01-14T07:31:53.398Z,48
2017-01-14T07:33:06.921Z,68
2017-01-14T07:34:20.456Z,64
2017-01-14T07:35:34.209Z,68
2017-01-14T07:36:48.139Z,68
2017-01-14T07:38:02.290Z,64
2017-01-14T07:39:15.936Z,64
2017-01-14T07:40:29.533Z,96
2017-01-14T07:41:43.113Z,84
2017-01-14T07:42:56.943Z,92
2017-01-14T07:44:10.530Z,60
2017-01-14T07:45:24.142Z,72
2017-01-14T07:46:37.831Z,92
2017-01-14T07:47:51.599Z,104
2017-01-14T07:49:05.498Z,136
2017-01-14T07:50:19.836Z,148
2017-01-14T07:51:33.426Z,124
2017-01-14T07:52:48.065Z,128
2017-01-14T07:54:01.733Z,108
2017-01-14T07:55:17.831Z,152
2017-01-14T07:56:31.888Z,200
2017-01-14T07:57:45.596Z,212
2017-01-14T07:58:59.124Z,176
2017-01-14T08:00:12.764Z,184
2017-01-14T08:01:27.609Z,224
2017-01-14T08:02:41.863Z,172
2017-01-14T08:03:55.533Z,156
2017-01-14T08:05:10.803Z,128
2017-01-14T08:06:24.484Z,124
2017-01-14T08:07:38.677Z,236
2017-01-14T08:08:52.230Z,308
2017-01-14T08:10:05.733Z,272
2017-01-14T08:11:19.368Z,268
2017-01-14T08:12:32.945Z,196
2017-01-14T08:13:47.085Z,152
2017-01-14T08:15:01.332Z,168
2017-01-14T08:16:14.966Z,192
2017-01-14T08:17:28.771Z,184
2017-01-14T08:18:45.019Z,228
2017-01-14T08:19:59.628Z,292
2017-01-14T08:21:13.345Z,400
2017-01-14T08:22:27.011Z,468
2017-01-14T08:23:40.850Z,492
2017-01-14T08:24:54.357Z,496
2017-01-14T08:26:08.340Z,700
2017-01-14T08:27:22.690Z,564
2017-01-14T08:28:37.467Z,368
2017-01-14T08:29:51.504Z,448
2017-01-14T08:31:05.552Z,484
2017-01-14T08:32:19.449Z,464
2017-01-14T08:33:33.314Z,516
2017-01-14T08:34:47.418Z,488
2017-01-14T08:36:02.052Z,512
2017-01-14T08:37:15.679Z,596
2017-01-14T08:38:29.789Z,668
2017-01-14T08:39:44.716Z,792
2017-01-14T08:40:58.594Z,936
2017-01-14T08:42:12.620Z,1136
2017-01-14T08:43:27.142Z,1172
2017-01-14T08:44:41.657Z,1136
2017-01-14T08:45:55.260Z,1184
2017-01-14T08:47:08.819Z,1104
2017-01-14T08:48:22.486Z,1164
2017-01-14T08:49:36.539Z,1276
2017-01-14T08:50:52.114Z,1444
2017-01-14T08:52:05.713Z,1344
2017-01-14T08:53:20.265Z,1092
2017-01-14T08:54:36.201Z,1040
2017-01-14T08:55:50.499Z,1036
2017-01-14T08:57:04.733Z,1136
2017-01-14T08:58:20.411Z,972
2017-01-14T08:59:34.995Z,1004
2017-01-14T09:00:48.821Z,948
2017-01-14T09:02:02.437Z,852
2017-01-14T09:03:16.376Z,1028
2017-01-14T09:04:29.906Z,1008
2017-01-14T09:05:45.166Z,892
2017-01-14T09:06:58.876Z,1036
2017-01-14T09:08:12.474Z,1080
2017-01-14T09:09:26.493Z,1348
2017-01-14T09:10:50.428Z,1508
2017-01-14T09:12:06.442Z,1560
2017-01-14T09:13:19.979Z,1648
2017-01-14T09:14:35.246Z,1620
2017-01-14T09:17:12.856Z,1468
2017-01-14T09:18:27.531Z,1616
2017-01-14T09:19:41.175Z,1504
2017-01-14T09:20:55.059Z,1360
2017-01-14T09:22:08.784Z,1132
2017-01-14T09:23:23.545Z,1296
2017-01-14T09:24:38.798Z,1328
2017-01-14T09:25:55.037Z,1548
2017-01-14T09:27:12.208Z,1440
2017-01-14T09:28:26.040Z,1312
2017-01-14T09:29:39.566Z,1536
2017-01-14T09:30:53.097Z,1472
2017-01-14T09:32:17.364Z,1672
2017-01-14T09:33:31.937Z,1436
2017-01-14T09:34:46.006Z,1632
2017-01-14T09:35:59.608Z,1736
2017-01-14T09:37:16.256Z,1524
2017-01-14T09:38:30.449Z,1292
2017-01-14T09:39:44.489Z,1112
2017-01-14T09:40:59.028Z,1088
2017-01-14T09:42:12.567Z,1264
2017-01-14T09:43:27.061Z,1112
2017-01-14T09:44:40.698Z,916
2017-01-14T09:45:55.385Z,1152
2017-01-14T09:47:09.052Z,1360
2017-01-14T09:48:33.938Z,1628
2017-01-14T09:49:49.411Z,1416
2017-01-14T09:51:03.261Z,1460
2017-01-14T09:52:18.115Z,1368
2017-01-14T09:53:53.244Z,1376
2017-01-14T09:55:07.127Z,1424
2017-01-14T09:56:21.092Z,1584
2017-01-14T09:57:34.773Z,2040
2017-01-14T09:58:48.534Z,2260
2017-01-14T10:00:02.305Z,2204
2017-01-14T10:01:15.815Z,2128
2017-01-14T10:02:29.432Z,2056
2017-01-14T10:03:44.301Z,1788
2017-01-14T10:05:01.377Z,1736
2017-01-14T10:06:14.944Z,2084
2017-01-14T10:07:28.770Z,2384
2017-01-14T10:08:42.338Z,2648
2017-01-14T10:09:56.364Z,3004
2017-01-14T10:11:11.015Z,2792
2017-01-14T10:12:24.645Z,2752
2017-01-14T10:13:38.255Z,2620
2017-01-14T10:14:52.257Z,2516
2017-01-14T10:16:07.394Z,2420
2017-01-14T10:17:22.160Z,2400
2017-01-14T10:18:35.728Z,2356
2017-01-14T10:19:49.259Z,2168
2017-01-14T10:21:12.798Z,1912
2017-01-14T10:22:27.022Z,1672
2017-01-14T10:23:40.649Z,1516
2017-01-14T10:24:54.364Z,1608
2017-01-14T10:26:08.096Z,1744
2017-01-14T10:27:21.602Z,1892
2017-01-14T10:28:35.859Z,2008
2017-01-14T10:29:52.250Z,2224
2017-01-14T10:31:05.934Z,2384
2017-01-14T10:32:19.587Z,2396
2017-01-14T10:34:10.696Z,2492
2017-01-14T10:35:24.274Z,2512
2017-01-14T10:36:38.049Z,2508
2017-01-14T10:37:52.020Z,2572
2017-01-14T10:39:05.792Z,2536
2017-01-14T10:40:19.736Z,2592
2017-01-14T10:41:43.824Z,2612
2017-01-14T10:42:57.412Z,2564
2017-01-14T10:44:11.487Z,2504
2017-01-14T10:45:24.938Z,2496
2017-01-14T10:46:38.883Z,2504
2017-01-14T10:47:52.693Z,2368
2017-01-14T10:49:06.233Z,2264
2017-01-14T10:50:19.849Z,2364
2017-01-14T10:51:35.873Z,2396
2017-01-14T10:53:01.452Z,2352
2017-01-14T10:54:15.675Z,2180
2017-01-14T10:55:33.382Z,2084
2017-01-14T10:56:52.472Z,2252
2017-01-14T10:58:10.848Z,2480
2017-01-14T10:59:29.853Z,2612
2017-01-14T11:00:50.042Z,2696
2017-01-14T11:02:10.013Z,2616
2017-01-14T11:03:37.697Z,2596
2017-01-14T11:04:54.904Z,2648
2017-01-14T11:06:13.754Z,2468
2017-01-14T11:07:33.868Z,2396
2017-01-14T11:08:51.434Z,2204
2017-01-14T11:10:11.345Z,2136
2017-01-14T11:11:28.105Z,2084
2017-01-14T11:12:41.897Z,1924
2017-01-14T11:13:56.035Z,1452
2017-01-14T11:15:09.581Z,1360
2017-01-14T11:16:23.405Z,1636
2017-01-14T11:17:36.857Z,1588
2017-01-14T11:18:50.463Z,1824
2017-01-14T11:20:03.964Z,2004
2017-01-14T11:21:17.417Z,1944
2017-01-14T11:22:31.755Z,1980
2017-01-14T11:23:45.303Z,1920
2017-01-14T11:24:59.437Z,1912
2017-01-14T11:26:13.303Z,1968
2017-01-14T11:27:26.741Z,1904
2017-01-14T11:28:40.659Z,2044
2017-01-14T11:29:54.248Z,2220
2017-01-14T11:31:07.874Z,2232
2017-01-14T11:32:21.483Z,1892
2017-01-14T11:33:34.957Z,1620
2017-01-14T11:34:48.865Z,1604
2017-01-14T11:36:02.422Z,1608
2017-01-14T11:37:15.957Z,1636
2017-01-14T11:38:29.444Z,1700
2017-01-14T11:39:42.856Z,1724
2017-01-14T11:40:57.903Z,1836
2017-01-14T11:42:11.477Z,2016
2017-01-14T11:43:31.234Z,2124
2017-01-14T11:44:44.763Z,2012
2017-01-14T11:45:58.351Z,2028
2017-01-14T11:47:12.150Z,2300
2017-01-14T11:48:27.888Z,2592
2017-01-14T11:49:41.432Z,2816
2017-01-14T11:50:55.070Z,2744
2017-01-14T11:52:08.680Z,2708
2017-01-14T11:53:22.484Z,2644
2017-01-14T11:54:36.173Z,2496
2017-01-14T11:55:49.911Z,2228
2017-01-14T11:57:03.379Z,1992
2017-01-14T11:58:16.850Z,1888
2017-01-14T11:59:30.684Z,1880
2017-01-14T12:00:44.274Z,1972
2017-01-14T12:01:58.027Z,2140
2017-01-14T12:03:11.502Z,2200
2017-01-14T12:04:24.949Z,2556
2017-01-14T12:05:38.683Z,2824
2017-01-14T12:06:53.575Z,2900
2017-01-14T12:08:07.174Z,2808
2017-01-14T12:09:20.674Z,2708
2017-01-14T12:10:34.198Z,2776
2017-01-14T12:11:48.052Z,2756
2017-01-14T12:13:01.563Z,2632
2017-01-14T12:14:15.070Z,2604
2017-01-14T12:15:28.807Z,2520
2017-01-14T12:16:50.685Z,2536
2017-01-14T12:18:04.504Z,2516
2017-01-14T12:19:18.029Z,2468
2017-01-14T12:20:31.503Z,2368
2017-01-14T12:21:45.082Z,2200
2017-01-14T12:23:18.515Z,2124
2017-01-14T12:24:32.334Z,2244
2017-01-14T12:25:46.213Z,2148
2017-01-14T12:26:59.734Z,2064
2017-01-14T12:28:13.257Z,2028
2017-01-14T12:29:27.008Z,2260
2017-01-14T12:30:41.043Z,2096
2017-01-14T12:31:54.528Z,2412
2017-01-14T12:33:08.115Z,2280
2017-01-14T12:34:21.733Z,2260
2017-01-14T12:35:35.938Z,2492
2017-01-14T12:36:49.543Z,2584
2017-01-14T12:38:03.105Z,2672
2017-01-14T12:39:16.730Z,2700
2017-01-14T12:40:30.636Z,2736
2017-01-14T12:41:44.415Z,2660
2017-01-14T12:42:57.906Z,2436
2017-01-14T12:44:11.823Z,2240
2017-01-14T12:45:25.390Z,2304
2017-01-14T12:46:39.042Z,2284
2017-01-14T12:47:52.784Z,2408
2017-01-14T12:49:06.330Z,2228
2017-01-14T12:50:20.481Z,2292
2017-01-14T12:51:34.499Z,2516
2017-01-14T12:52:48.270Z,2676
2017-01-14T12:54:02.155Z,2504
2017-01-14T12:55:16.899Z,2360
2017-01-14T12:56:30.442Z,2184
2017-01-14T12:57:43.998Z,2148
2017-01-14T12:58:57.490Z,2188
2017-01-14T13:00:12.175Z,2208
2017-01-14T13:01:35.656Z,2264
2017-01-14T13:02:49.201Z,2292
2017-01-14T13:04:02.867Z,2284
2017-01-14T13:05:19.006Z,2252
2017-01-14T13:06:33.717Z,2252
2017-01-14T13:07:47.324Z,2280
2017-01-14T13:09:00.843Z,2256
2017-01-14T13:10:14.459Z,2200
2017-01-14T13:11:30.131Z,2124
2017-01-14T13:12:44.261Z,2008
2017-01-14T13:13:57.879Z,1920
2017-01-14T13:15:11.858Z,1868
2017-01-14T13:16:25.535Z,1808
2017-01-14T13:17:39.753Z,1736
2017-01-14T13:18:57.141Z,1716
2017-01-14T13:20:11.067Z,1664
2017-01-14T13:21:41.182Z,1512
2017-01-14T13:22:55.375Z,1140
2017-01-14T13:24:09.263Z,1112
2017-01-14T13:25:23.221Z,876
2017-01-14T13:26:36.985Z,756
2017-01-14T13:28:00.621Z,640
2017-01-14T13:29:14.226Z,536
2017-01-14T13:30:28.420Z,480
2017-01-14T13:31:42.957Z,424
2017-01-14T13:32:57.132Z,428
2017-01-14T13:34:13.305Z,456
2017-01-14T13:35:27.693Z,468
2017-01-14T13:36:41.319Z,404
2017-01-14T13:37:55.454Z,412
2017-01-14T13:39:11.226Z,404
2017-01-14T13:40:26.072Z,412
2017-01-14T13:41:40.534Z,380
2017-01-14T13:42:54.334Z,480
2017-01-14T13:44:07.789Z,696
2017-01-14T13:45:22.216Z,904
2017-01-14T13:46:35.729Z,1000
2017-01-14T13:47:49.420Z,1056
2017-01-14T13:49:03.565Z,1000
2017-01-14T13:50:17.453Z,972
2017-01-14T13:51:33.220Z,952
2017-01-14T13:52:47.541Z,908
2017-01-14T13:54:01.519Z,784
2017-01-14T13:55:16.303Z,628
2017-01-14T13:56:30.608Z,616
2017-01-14T13:57:45.026Z,456
2017-01-14T13:58:59.428Z,404
2017-01-14T14:00:13.479Z,460
2017-01-14T14:01:27.549Z,480
2017-01-14T14:02:43.626Z,680
2017-01-14T14:03:58.803Z,784
2017-01-14T14:05:12.342Z,680
2017-01-14T14:06:25.836Z,660
2017-01-14T14:07:39.879Z,744
2017-01-14T14:08:53.512Z,824
2017-01-14T14:10:07.009Z,944
2017-01-14T14:11:20.552Z,1012
2017-01-14T14:12:34.348Z,1052
2017-01-14T14:13:48.322Z,1160
2017-01-14T14:15:02.317Z,1064
2017-01-14T14:16:15.943Z,780
2017-01-14T14:17:29.370Z,568
2017-01-14T14:18:55.815Z,504
2017-01-14T14:20:10.586Z,476
2017-01-14T14:21:24.035Z,576
2017-01-14T14:22:39.792Z,588
2017-01-14T14:23:53.269Z,544
2017-01-14T14:25:07.498Z,492
2017-01-14T14:26:20.958Z,516
2017-01-14T14:27:34.428Z,524
2017-01-14T14:28:47.867Z,544
2017-01-14T14:30:01.378Z,608
2017-01-14T14:31:15.623Z,644
2017-01-14T14:32:29.902Z,612
2017-01-14T14:34:15.396Z,472
2017-01-14T14:35:28.965Z,388
2017-01-14T14:36:42.758Z,416
2017-01-14T14:37:56.189Z,440
2017-01-14T14:39:09.861Z,348
2017-01-14T14:40:23.841Z,276
2017-01-14T14:41:37.280Z,340
2017-01-14T14:42:51.035Z,456
2017-01-14T14:44:04.551Z,400
2017-01-14T14:45:18.551Z,284
2017-01-14T14:46:32.116Z,228
2017-01-14T14:47:45.606Z,216
2017-01-14T14:48:59.348Z,204
2017-01-14T14:50:12.810Z,212
2017-01-14T14:51:26.369Z,200
2017-01-14T14:52:39.940Z,164
2017-01-14T14:53:53.451Z,160
2017-01-14T14:55:07.238Z,184
2017-01-14T14:56:22.013Z,204
2017-01-14T14:57:35.552Z,180
2017-01-14T14:58:49.039Z,152
2017-01-14T15:00:15.209Z,132
2017-01-14T15:01:29.762Z,116
2017-01-14T15:02:43.302Z,112
2017-01-14T15:03:58.003Z,108
2017-01-14T15:05:11.957Z,132
2017-01-14T15:06:51.428Z,100
2017-01-14T15:08:04.932Z,96
2017-01-14T15:09:18.407Z,108
2017-01-14T15:10:31.993Z,112
2017-01-14T15:11:47.478Z,128
2017-01-14T15:13:01.650Z,128
2017-01-14T15:14:15.086Z,128
2017-01-14T15:15:28.559Z,128
2017-01-14T15:16:42.115Z,108
2017-01-14T15:17:55.703Z,96
2017-01-14T15:19:09.455Z,116
2017-01-14T15:20:22.938Z,148
2017-01-14T15:21:36.667Z,164
2017-01-14T15:22:51.000Z,188
2017-01-14T15:24:06.506Z,196
2017-01-14T15:25:26.519Z,188
2017-01-14T15:26:43.661Z,168
2017-01-14T15:27:59.720Z,160
2017-01-14T15:29:14.136Z,168
2017-01-14T15:30:29.283Z,160
2017-01-14T15:31:45.218Z,140
2017-01-14T15:32:59.994Z,120
2017-01-14T15:34:14.681Z,112
2017-01-14T15:35:28.539Z,112
2017-01-14T15:36:42.637Z,108
2017-01-14T15:37:59.858Z,108
2017-01-14T15:39:14.481Z,96
2017-01-14T15:40:30.972Z,84
2017-01-14T15:41:46.649Z,72
2017-01-14T15:43:01.537Z,60
2017-01-14T15:44:16.793Z,48
2017-01-14T15:45:31.486Z,40
2017-01-14T15:46:46.050Z,40
2017-01-14T15:47:59.575Z,36
2017-01-14T15:49:13.077Z,28
2017-01-14T15:50:26.803Z,28
2017-01-14T15:51:40.337Z,28
2017-01-14T15:52:53.810Z,28
2017-01-14T15:54:17.273Z,28
2017-01-14T15:55:30.692Z,28
2017-01-14T15:56:44.460Z,24
2017-01-14T15:57:57.892Z,24
2017-01-14T15:59:11.398Z,20
2017-01-14T16:00:24.839Z,16
2017-01-14T16:01:38.277Z,16
2017-01-14T16:02:52.478Z,12
2017-01-14T16:04:09.195Z,12
2017-01-14T16:05:25.295Z,8
2017-01-14T16:06:39.059Z,4
2017-01-14T16:07:55.750Z,8
2017-01-14T16:09:11.450Z,4
2017-01-14T16:10:27.238Z,0
2017-01-14T16:11:43.772Z,4
2017-01-14T16:12:58.514Z,4
2017-01-14T16:14:15.619Z,0
2017-01-14T16:15:33.153Z,4
2017-01-14T16:16:48.183Z,4
2017-01-14T16:18:03.556Z,0
2017-01-14T16:19:21.367Z,0
2017-01-14T16:20:36.716Z,0
2017-01-14T16:21:51.995Z,0
2017-01-14T16:23:06.690Z,0
2017-01-14T16:24:22.373Z,0
2017-01-14T16:25:38.432Z,0
2017-01-14T16:26:53.510Z,0
2017-01-14T16:28:09.198Z,0
2017-01-14T16:29:33.906Z,0
2017-01-14T16:30:49.653Z,0
2017-01-14T16:32:05.686Z,0
2017-01-14T16:33:20.999Z,0
2017-01-14T16:34:39.813Z,0
2017-01-14T16:35:55.450Z,0
2017-01-14T16:37:09.499Z,0
2017-01-14T16:38:24.873Z,0
2017-01-14T16:39:40.581Z,0
2017-01-14T16:40:57.129Z,0
2017-01-14T16:42:13.497Z,0
2017-01-14T16:43:31.098Z,0
2017-01-14T16:44:48.915Z,0
2017-01-14T16:46:24.867Z,0
2017-01-14T16:47:40.672Z,0
2017-01-14T16:48:54.840Z,0
2017-01-14T16:50:10.015Z,0
2017-01-14T16:51:26.967Z,0
2017-01-14T16:52:44.305Z,0
2017-01-14T16:54:02.331Z,0
2017-01-14T16:55:19.109Z,0
2017-01-14T16:56:37.294Z,0
2017-01-14T16:57:52.509Z,0
2017-01-14T16:59:12.124Z,0
2017-01-14T17:00:29.123Z,0
2017-01-14T17:01:45.904Z,0
2017-01-14T17:03:02.494Z,0
2017-01-14T17:04:20.128Z,0
2017-01-14T17:05:36.684Z,0
2017-01-14T17:06:53.240Z,0
2017-01-14T17:08:12.050Z,0
2017-01-14T17:09:29.576Z,0
2017-01-14T17:10:45.765Z,0
2017-01-14T17:12:01.099Z,0
2017-01-14T17:13:19.393Z,0
2017-01-14T17:14:36.245Z,0
2017-01-14T17:15:54.456Z,0
2017-01-14T17:17:11.530Z,0
2017-01-14T17:18:29.133Z,0
2017-01-14T17:19:45.762Z,0
2017-01-14T17:21:01.898Z,0
2017-01-14T17:22:17.124Z,0
2017-01-14T17:23:34.461Z,0
2017-01-14T17:24:52.843Z,0
2017-01-14T17:26:09.373Z,0
2017-01-14T17:27:27.271Z,0
2017-01-14T17:28:43.311Z,0
2017-01-14T17:29:59.708Z,0
2017-01-14T17:31:15.291Z,0
2017-01-14T17:32:30.924Z,0
2017-01-14T17:33:49.642Z,0
2017-01-14T17:35:07.729Z,0
2017-01-14T17:36:22.941Z,0
2017-01-14T17:37:37.932Z,0
2017-01-14T17:38:55.401Z,0